Stanford, CA

5:15 AM PST on December 08, 2016 (GMT -0800)
Stanford University | | Change Station

Elev 80 ft 37.42 °N, 122.16 °W | Updated 35 seconds ago

Rain
Rain
49.5 °F
Feels Like 50 °F
N
0.0
Wind Variable Wind from NW
Gusts 0.0 mph

Today
High -- | Low -- °F
--% Chance of Precip.
Yesterday
High -- | Low -- °F
Precip. -- in
Pressure 30.05 in
Visibility 8.0 miles
Clouds Overcast 4100 ft
Windchill 50 °F
Dew Point 47 °F
Humidity 92%
Rainfall 0.20 in
Snow Depth Not available.
7:11 AM 4:50 PM
Waxing Gibbous, 63% visible
METAR KNUQ 081256Z AUTO 13011KT 8SM -RA OVC041 11/08 A3004 RMK AO2 RAB14 SLP174 P0000 T01060083
Pressure 30.05 in
Visibility 8.0 miles
Clouds Overcast 4100 ft
Windchill 50 °F
Dew Point 47 °F
Humidity 92%
Rainfall 0.20 in
Snow Depth Not available.
7:11 AM 4:50 PM
Waxing Gibbous, 63% visible
METAR KNUQ 081256Z AUTO 13011KT 8SM -RA OVC041 11/08 A3004 RMK AO2 RAB14 SLP174 P0000 T01060083

10-Day Weather Forecast

Almanac

Astronomy

Dec. 08, 2016 Rise Set
Actual Time
Civil Twilight
Nautical Twilight
Astronomical Twilight
Moon
Length of Visible Light
Length of Day
Tomorrow will be .
, % of the Moon is Illuminated

Today's Extremes

State Highs State Lows

Community

WunderPhotos

Upload Photos

1,956,267 photos uploaded!

WunderBlog® & News

Nearby

Air Quality

  Air Quality AQ Index Pollutant
Not available.

Snow Depth

Station Depth Elevation

Earthquake Activity

City Distance Mag. Time & Date
Minimum magnitude displayed is 2.5.

Coastal Water Temperatures

Place Temperature

Stations

Nearby Weather Stations

Station Location Temp. Windchill Dew Point Humidity Wind Precip. Elev Updated Type
                   

Watches & Warnings

There are currently no watches in effect.